Time;durP1;ratioP1;P1;durP2;ratioP2;P2;SDS_P1;SDS_P2;PMS_P1;PMS_P2;Temp;Humidity;BMP_temperature;BMP_pressure;BME280_temperature;BME280_humidity;BME280_pressure;Samples;Min_cycle;Max_cycle;Signal;HPM_P1;HPM_P2
2022/10/25 00:01:31;;;;;;;12.10;5.03;;;11.00;99.90;;;10.04;100.00;97516.38;5031412;28;20423;-77
2022/10/25 00:03:57;;;;;;;12.20;5.20;;;11.00;99.90;;;10.03;100.00;97523.50;5030831;28;20468;-77
2022/10/25 00:06:24;;;;;;;22.13;6.03;;;11.00;99.90;;;10.08;100.00;97520.13;5030620;28;20889;-77
2022/10/25 00:08:50;;;;;;;16.67;5.40;;;11.00;99.90;;;10.09;100.00;97527.81;5031072;28;20443;-78
2022/10/25 00:11:20;;;;;;;16.23;5.25;;;11.00;99.90;;;10.02;100.00;97521.09;5031152;28;20825;-77
2022/10/25 00:13:48;;;;;;;12.93;5.13;;;11.00;99.90;;;10.03;100.00;97525.34;5030849;28;20449;-77
2022/10/25 00:16:15;;;;;;;10.75;4.80;;;11.00;99.90;;;10.00;100.00;97520.53;5029637;28;20773;-78
2022/10/25 00:18:42;;;;;;;14.80;5.22;;;10.90;99.90;;;10.00;100.00;97523.19;5030845;28;20423;-77
2022/10/25 00:21:08;;;;;;;13.70;4.82;;;10.90;99.90;;;9.97;100.00;97519.19;5030927;28;20757;-77
2022/10/25 00:23:34;;;;;;;19.95;5.47;;;10.90;99.90;;;9.96;100.00;97516.78;5030403;28;20407;-78
2022/10/25 00:26:01;;;;;;;15.07;5.20;;;10.90;99.90;;;9.91;100.00;97522.81;5030869;28;20742;-77
2022/10/25 00:28:27;;;;;;;19.02;6.07;;;10.90;99.90;;;9.93;100.00;97519.91;5030767;28;20395;-78
2022/10/25 00:30:59;;;;;;;14.27;5.20;;;10.90;99.90;;;9.87;100.00;97513.75;5030794;28;20976;-77
2022/10/25 00:33:27;;;;;;;20.93;5.97;;;10.90;99.90;;;9.90;100.00;97526.50;5030349;28;20480;-77
2022/10/25 00:35:54;;;;;;;16.95;5.65;;;10.90;99.90;;;9.88;100.00;97519.84;5030577;28;20407;-78
2022/10/25 00:38:20;;;;;;;16.95;5.72;;;10.80;99.90;;;9.90;100.00;97518.56;5045782;28;20468;-78
2022/10/25 00:40:46;;;;;;;19.50;6.20;;;10.80;99.90;;;9.87;100.00;97520.88;5030726;28;20410;-77
2022/10/25 00:43:34;;;;;;;14.13;5.05;;;10.80;99.90;;;9.85;100.00;97515.84;5030118;28;20408;-78
2022/10/25 00:46:04;;;;;;;12.20;5.13;;;10.80;99.90;;;9.82;100.00;97516.34;5030562;28;20414;-77
2022/10/25 00:48:30;;;;;;;18.85;6.07;;;10.80;99.90;;;9.91;100.00;97522.00;5056429;22;20472;-72
2022/10/25 00:50:58;;;;;;;12.15;5.38;;;10.80;99.90;;;9.83;100.00;97527.72;5050382;28;20398;-74
2022/10/25 00:53:31;;;;;;;20.45;5.97;;;10.80;99.90;;;9.84;100.00;97530.13;5049952;28;20406;-74
2022/10/25 00:56:02;;;;;;;21.33;6.30;;;10.80;99.90;;;9.80;100.00;97528.19;5050350;28;20398;-75
2022/10/25 00:58:32;;;;;;;17.17;6.00;;;10.80;99.90;;;9.80;100.00;97533.47;5037557;28;20824;-74
2022/10/25 01:00:58;;;;;;;18.02;6.28;;;10.80;99.90;;;9.79;100.00;97524.75;5030387;28;20465;-74
2022/10/25 01:03:25;;;;;;;18.48;5.72;;;10.80;99.90;;;9.74;100.00;97518.59;5030052;28;20403;-74
2022/10/25 01:05:52;;;;;;;14.47;5.87;;;10.80;99.90;;;9.73;100.00;97516.97;5030358;28;20399;-75
2022/10/25 01:08:20;;;;;;;17.52;6.10;;;10.70;99.90;;;9.74;100.00;97516.75;5030206;28;20413;-73
2022/10/25 01:10:48;;;;;;;16.63;6.25;;;10.70;99.90;;;9.73;100.00;97517.78;5030332;28;20410;-75
2022/10/25 01:13:14;;;;;;;20.95;6.68;;;10.70;99.90;;;9.73;100.00;97524.91;5029847;28;20946;-75
2022/10/25 01:15:55;;;;;;;18.98;5.88;;;10.70;99.90;;;9.68;100.00;97523.00;5030139;28;20901;-75
2022/10/25 01:18:31;;;;;;;15.45;6.53;;;10.70;99.90;;;9.70;100.00;97505.03;5031501;28;20415;-74
2022/10/25 01:21:43;;;;;;;21.48;6.70;;;10.70;99.90;;;9.68;100.00;97515.06;5034227;28;20402;-74
2022/10/25 01:24:36;;;;;;;17.48;6.47;;;10.70;99.90;;;9.68;100.00;97507.16;5033894;28;21039;-74
2022/10/25 01:27:35;;;;;;;12.45;5.97;;;10.60;99.90;;;9.65;100.00;97505.78;5034123;28;20392;-74
2022/10/25 01:30:21;;;;;;;12.40;5.50;;;10.60;99.90;;;9.57;100.00;97515.94;5034141;28;20437;-74
2022/10/25 01:32:58;;;;;;;17.15;6.75;;;10.60;99.90;;;9.59;100.00;97511.22;5033667;28;20398;-74
2022/10/25 01:35:29;;;;;;;21.20;6.20;;;10.60;99.90;;;9.57;100.00;97505.38;5033956;28;20831;-74
2022/10/25 01:38:28;;;;;;;19.13;6.65;;;10.60;99.90;;;9.57;100.00;97505.38;5033852;28;20419;-74
2022/10/25 01:41:07;;;;;;;20.10;6.65;;;10.60;99.90;;;9.53;100.00;97506.91;5033857;28;20407;-74
2022/10/25 01:43:47;;;;;;;14.63;5.70;;;10.60;99.90;;;9.48;100.00;97512.09;5033394;28;20395;-74
2022/10/25 01:46:22;;;;;;;28.95;7.82;;;10.50;99.90;;;9.49;100.00;97506.59;5032480;28;20465;-74
2022/10/25 01:48:58;;;;;;;22.77;6.93;;;10.50;99.90;;;9.46;100.00;97515.00;5033754;28;20481;-75
2022/10/25 01:51:27;;;;;;;22.63;7.10;;;10.50;99.90;;;9.48;100.00;97517.38;5033797;28;20399;-74
2022/10/25 01:53:53;;;;;;;18.63;6.95;;;10.50;99.90;;;9.45;100.00;97508.13;5033234;28;20410;-74
2022/10/25 01:56:26;;;;;;;19.38;6.28;;;10.50;99.90;;;9.43;100.00;97514.66;5033532;28;20742;-74
2022/10/25 01:59:19;;;;;;;22.40;6.72;;;10.40;99.90;;;9.43;100.00;97518.13;5033547;28;20399;-73
2022/10/25 02:02:02;;;;;;;26.13;7.47;;;10.40;99.90;;;9.44;100.00;97517.09;5033522;28;20484;-74
2022/10/25 02:04:45;;;;;;;30.48;7.88;;;10.40;99.90;;;9.40;100.00;97515.94;5033121;28;20460;-74
2022/10/25 02:07:20;;;;;;;18.83;7.07;;;10.40;99.90;;;9.38;100.00;97523.31;5033529;28;20515;-73
2022/10/25 02:09:58;;;;;;;22.55;7.05;;;10.40;99.90;;;9.38;100.00;97520.69;5033414;28;20395;-74
2022/10/25 02:12:29;;;;;;;16.45;6.20;;;10.40;99.90;;;9.33;100.00;97517.94;5033246;28;20399;-74
2022/10/25 02:15:06;;;;;;;29.13;7.78;;;10.30;99.90;;;9.32;100.00;97508.44;5032784;28;20429;-73
2022/10/25 02:17:34;;;;;;;17.15;7.13;;;10.30;99.90;;;9.33;100.00;97512.66;5033102;28;20476;-74
2022/10/25 02:20:03;;;;;;;23.25;7.63;;;10.40;99.90;;;9.39;100.00;97514.38;5033146;28;20406;-74
2022/10/25 02:22:32;;;;;;;26.80;7.80;;;10.40;99.90;;;9.39;100.00;97519.66;5033064;28;20959;-75
2022/10/25 02:25:00;;;;;;;23.77;8.10;;;10.40;99.90;;;9.40;100.00;97523.88;5032588;28;20920;-73
2022/10/25 02:27:28;;;;;;;28.23;7.63;;;10.40;99.90;;;9.40;100.00;97525.75;5033131;28;20469;-75
2022/10/25 02:29:57;;;;;;;26.00;8.35;;;10.40;99.90;;;9.40;100.00;97518.59;5032465;28;20409;-74
2022/10/25 02:32:24;;;;;;;19.40;7.32;;;10.40;99.90;;;9.32;100.00;97516.38;5031734;28;20492;-74
2022/10/25 02:34:50;;;;;;;15.48;6.15;;;10.40;99.90;;;9.31;100.00;97507.63;5032445;28;20410;-73
2022/10/25 02:37:17;;;;;;;27.35;8.55;;;10.30;99.90;;;9.36;100.00;97514.84;5032694;28;20423;-74
2022/10/25 02:39:44;;;;;;;21.73;8.07;;;10.40;99.90;;;9.34;100.00;97519.56;5032799;28;20404;-74
2022/10/25 02:42:10;;;;;;;37.13;8.80;;;10.40;99.90;;;9.39;100.00;97517.00;5032861;28;20414;-74
2022/10/25 02:44:36;;;;;;;25.45;7.82;;;10.40;99.90;;;9.33;100.00;97516.09;5032112;28;20407;-74
2022/10/25 02:47:02;;;;;;;28.48;8.05;;;10.30;99.90;;;9.27;100.00;97514.44;5032579;28;20422;-74
2022/10/25 02:49:28;;;;;;;26.63;7.55;;;10.30;99.90;;;9.26;100.00;97504.09;5032486;28;20885;-74
2022/10/25 02:51:54;;;;;;;19.83;8.30;;;10.30;99.90;;;9.26;100.00;97506.72;5032531;28;20402;-74
2022/10/25 02:54:22;;;;;;;22.97;8.03;;;10.30;99.90;;;9.21;100.00;97506.66;5032225;28;20403;-74
2022/10/25 02:56:51;;;;;;;20.73;6.90;;;10.20;99.90;;;9.20;100.00;97500.56;5032493;28;20884;-74
2022/10/25 02:59:18;;;;;;;25.13;8.43;;;10.20;99.90;;;9.24;100.00;97500.91;5032301;28;20442;-74
2022/10/25 03:01:44;;;;;;;14.65;6.30;;;10.20;99.90;;;9.18;100.00;97500.00;5032464;28;20403;-73
2022/10/25 03:04:10;;;;;;;22.50;7.25;;;10.20;99.90;;;9.20;100.00;97505.06;5032093;28;20453;-74
2022/10/25 03:06:36;;;;;;;29.30;8.05;;;10.20;99.90;;;9.18;100.00;97501.84;5032444;28;20937;-74
2022/10/25 03:09:02;;;;;;;25.50;8.95;;;10.20;99.90;;;9.22;100.00;97495.88;5032196;28;20981;-75
2022/10/25 03:11:29;;;;;;;22.33;8.00;;;10.20;99.90;;;9.12;100.00;97489.59;5032151;28;20439;-74
2022/10/25 03:13:55;;;;;;;22.70;7.82;;;10.20;99.90;;;9.12;100.00;97493.03;5031641;28;20899;-74
2022/10/25 03:16:21;;;;;;;23.67;7.77;;;10.10;99.90;;;9.15;100.00;97494.41;5032137;28;20489;-73
2022/10/25 03:18:47;;;;;;;30.92;9.40;;;10.20;99.90;;;9.20;100.00;97499.78;5032009;28;20689;-75
2022/10/25 03:21:13;;;;;;;24.05;8.23;;;10.20;99.90;;;9.17;100.00;97505.56;5032093;28;20490;-74
2022/10/25 03:23:39;;;;;;;21.88;7.90;;;10.20;99.90;;;9.17;100.00;97508.19;5031527;28;20438;-74
2022/10/25 03:26:05;;;;;;;29.13;8.40;;;10.20;99.90;;;9.17;100.00;97514.25;5031848;28;20403;-74
2022/10/25 03:28:32;;;;;;;30.52;8.45;;;10.20;99.90;;;9.16;100.00;97512.66;5031739;28;20407;-74
2022/10/25 03:30:59;;;;;;;27.73;8.73;;;10.20;99.90;;;9.15;100.00;97518.97;5030533;28;20443;-74
2022/10/25 03:33:26;;;;;;;19.70;7.63;;;10.20;99.90;;;9.11;100.00;97517.84;5031373;28;20466;-73
2022/10/25 03:35:53;;;;;;;25.02;7.97;;;10.10;99.90;;;9.15;100.00;97515.53;5031763;28;20410;-74
2022/10/25 03:38:20;;;;;;;29.15;9.05;;;10.10;99.90;;;9.12;100.00;97518.66;5031517;28;20506;-75
2022/10/25 03:40:46;;;;;;;26.80;7.65;;;10.10;99.90;;;9.07;100.00;97515.94;5030979;28;20399;-74
2022/10/25 03:43:12;;;;;;;27.95;8.30;;;10.10;99.90;;;9.05;100.00;97526.72;5031352;28;20399;-74
2022/10/25 03:45:39;;;;;;;19.90;7.72;;;10.10;99.90;;;9.05;100.00;97524.09;5031464;28;20411;-74
2022/10/25 03:48:06;;;;;;;32.58;9.65;;;10.10;99.90;;;9.11;100.00;97525.75;5030857;28;20508;-74
2022/10/25 03:50:32;;;;;;;28.15;9.93;;;10.10;99.90;;;9.08;100.00;97528.09;5030904;28;20399;-73
2022/10/25 03:52:58;;;;;;;22.77;8.00;;;10.10;99.90;;;9.02;100.00;97526.41;5026045;28;20877;-74
2022/10/25 03:55:24;;;;;;;36.05;9.48;;;10.00;99.90;;;9.04;100.00;97537.50;5018835;28;20409;-75
2022/10/25 03:57:50;;;;;;;28.17;9.27;;;10.00;99.90;;;9.06;100.00;97538.09;5020532;28;20417;-74
2022/10/25 04:00:16;;;;;;;27.05;8.82;;;10.00;99.90;;;9.02;100.00;97536.97;5020397;28;20769;-74
2022/10/25 04:02:43;;;;;;;30.67;9.93;;;10.00;99.90;;;9.00;100.00;97541.69;5021401;28;20479;-74
2022/10/25 04:05:09;;;;;;;23.88;9.02;;;10.00;99.90;;;8.97;100.00;97537.66;5021533;28;20411;-74
2022/10/25 04:07:35;;;;;;;32.00;9.27;;;10.00;99.90;;;8.96;100.00;97533.41;5019314;28;20424;-74
2022/10/25 04:10:01;;;;;;;32.58;9.90;;;10.00;99.90;;;8.98;100.00;97538.47;5019917;28;20403;-75
2022/10/25 04:12:27;;;;;;;32.63;10.13;;;9.90;99.90;;;8.95;100.00;97537.09;5021495;28;20453;-75
2022/10/25 04:14:53;;;;;;;24.10;9.07;;;9.90;99.90;;;8.96;100.00;97530.78;5025366;28;20415;-74
2022/10/25 04:17:19;;;;;;;32.35;9.75;;;10.00;99.90;;;8.92;100.00;97530.47;5030717;28;20454;-75
2022/10/25 04:19:46;;;;;;;25.33;8.70;;;9.90;99.90;;;8.92;100.00;97532.31;5020358;28;20802;-74
2022/10/25 04:22:12;;;;;;;18.63;8.35;;;9.90;99.90;;;8.91;100.00;97539.41;5020246;28;20407;-74
2022/10/25 04:24:38;;;;;;;34.95;10.18;;;9.90;99.90;;;8.95;100.00;97537.09;5024739;28;20785;-74
2022/10/25 04:27:04;;;;;;;29.30;9.30;;;9.90;99.90;;;8.93;100.00;97533.91;5020042;28;20399;-75
2022/10/25 04:29:30;;;;;;;29.10;9.38;;;9.90;99.90;;;8.94;100.00;97532.88;5021277;28;20451;-75
2022/10/25 04:31:56;;;;;;;25.40;8.73;;;9.90;99.90;;;8.95;100.00;97544.25;5019426;28;20416;-75
2022/10/25 04:34:22;;;;;;;31.98;10.48;;;9.90;99.90;;;8.99;100.00;97530.31;5021608;28;20804;-73
2022/10/25 04:36:49;;;;;;;24.55;9.23;;;10.00;99.90;;;8.97;100.00;97536.88;5030272;28;20414;-74
2022/10/25 04:39:15;;;;;;;26.40;9.93;;;10.00;99.90;;;9.01;100.00;97538.81;5027182;28;20408;-74
2022/10/25 04:41:41;;;;;;;28.37;9.70;;;10.00;99.90;;;9.01;100.00;97538.00;5019060;28;20873;-74
2022/10/25 04:44:09;;;;;;;38.22;11.50;;;10.00;99.90;;;9.02;100.00;97540.38;5027152;28;20407;-75
2022/10/25 04:46:35;;;;;;;29.88;9.90;;;10.00;99.90;;;8.97;100.00;97529.75;5030383;28;20437;-74
2022/10/25 04:49:01;;;;;;;23.58;8.85;;;10.00;99.90;;;8.93;100.00;97542.63;5030296;28;20411;-74
2022/10/25 04:51:26;;;;;;;33.00;11.43;;;9.90;99.90;;;8.98;100.00;97533.19;5025179;28;20419;-74
2022/10/25 04:53:55;;;;;;;34.10;10.98;;;10.00;99.90;;;8.90;100.00;97540.44;5024061;28;20459;-73
2022/10/25 04:56:21;;;;;;;24.07;9.27;;;9.90;99.90;;;8.86;100.00;97535.91;5026806;28;20399;-74
2022/10/25 04:58:47;;;;;;;23.27;9.63;;;9.90;99.90;;;8.83;100.00;97533.72;5017294;28;20428;-75
2022/10/25 05:01:16;;;;;;;35.22;11.27;;;9.80;99.90;;;8.85;100.00;97537.72;5010577;28;20409;-74
2022/10/25 05:03:42;;;;;;;36.20;10.57;;;9.90;99.90;;;8.87;100.00;97540.91;5009987;28;20408;-74
2022/10/25 05:06:10;;;;;;;21.70;8.70;;;9.90;99.90;;;8.82;100.00;97538.19;5010238;28;20415;-74
2022/10/25 05:08:39;;;;;;;30.00;10.03;;;9.80;99.90;;;8.76;100.00;97536.50;5010316;28;20405;-74
2022/10/25 05:11:07;;;;;;;43.67;11.13;;;9.80;99.90;;;8.82;100.00;97535.53;5017168;28;20491;-74
2022/10/25 05:13:34;;;;;;;32.72;10.88;;;9.80;99.90;;;8.79;100.00;97538.69;5027058;28;20937;-74
2022/10/25 05:16:01;;;;;;;32.88;10.15;;;9.80;99.90;;;8.75;100.00;97545.44;5030095;28;20422;-74
2022/10/25 05:18:27;;;;;;;33.22;10.23;;;9.80;99.90;;;8.72;100.00;97545.91;5030095;28;20502;-73
2022/10/25 05:20:54;;;;;;;24.70;9.15;;;9.80;99.90;;;8.75;100.00;97549.91;5030244;28;20410;-75
2022/10/25 05:23:21;;;;;;;28.27;10.23;;;9.80;99.90;;;8.77;100.00;97547.84;5029614;28;20870;-74
2022/10/25 05:25:47;;;;;;;29.88;10.50;;;9.80;99.90;;;8.75;100.00;97556.00;5030019;28;20401;-74
2022/10/25 05:28:15;;;;;;;29.00;9.40;;;9.70;99.90;;;8.70;100.00;97548.00;5029970;28;20457;-72
2022/10/25 05:30:40;;;;;;;32.97;10.77;;;9.70;99.90;;;8.68;100.00;97554.53;5030124;28;21035;-72
2022/10/25 05:33:06;;;;;;;25.58;9.18;;;9.70;99.90;;;8.68;100.00;97543.97;5029704;28;20460;-72
2022/10/25 05:35:32;;;;;;;36.60;11.45;;;9.70;99.90;;;8.73;100.00;97551.97;5030022;28;20494;-74
2022/10/25 05:37:59;;;;;;;28.98;9.70;;;9.70;99.90;;;8.70;100.00;97547.19;5028650;28;20419;-74
2022/10/25 05:40:25;;;;;;;28.23;9.37;;;9.70;99.90;;;8.67;100.00;97561.66;5029912;28;20411;-74
2022/10/25 05:42:52;;;;;;;33.92;11.50;;;9.70;99.90;;;8.68;100.00;97557.97;5029523;28;20902;-74
2022/10/25 05:45:19;;;;;;;29.08;9.88;;;9.70;99.90;;;8.68;100.00;97557.97;5029970;28;20406;-74
2022/10/25 05:47:45;;;;;;;36.55;11.15;;;9.70;99.90;;;8.70;100.00;97550.63;5029734;28;20422;-74
2022/10/25 05:50:11;;;;;;;30.13;9.85;;;9.70;99.90;;;8.66;100.00;97553.97;5030008;28;20410;-74
2022/10/25 05:52:42;;;;;;;24.60;8.88;;;9.70;99.90;;;8.66;100.00;97560.03;5029867;28;20407;-74
2022/10/25 05:55:08;;;;;;;33.88;10.98;;;9.70;99.90;;;8.66;100.00;97557.41;5029636;28;20412;-74
2022/10/25 05:57:34;;;;;;;22.10;9.15;;;9.70;99.90;;;8.72;100.00;97560.97;5029711;28;20785;-74
2022/10/25 06:00:00;;;;;;;27.02;10.07;;;9.70;99.90;;;8.75;100.00;97563.91;5029817;28;20435;-73
2022/10/25 06:02:27;;;;;;;27.35;10.63;;;9.70;99.90;;;8.80;100.00;97565.84;5029915;28;20407;-75
2022/10/25 06:04:53;;;;;;;30.25;10.85;;;9.80;99.90;;;8.90;100.00;97572.13;5031349;28;20413;-74
2022/10/25 06:07:19;;;;;;;30.67;11.68;;;9.80;99.90;;;8.87;100.00;97567.31;5033269;28;20403;-74
2022/10/25 06:09:44;;;;;;;25.70;9.75;;;9.90;99.90;;;8.92;100.00;97572.72;5033297;28;20493;-74
2022/10/25 06:12:10;;;;;;;45.27;12.47;;;9.90;99.90;;;8.92;100.00;97570.06;5033394;28;20960;-74
2022/10/25 06:14:36;;;;;;;25.25;9.40;;;9.90;99.90;;;8.97;100.00;97571.97;5032754;28;20411;-74
2022/10/25 06:17:02;;;;;;;28.60;10.57;;;9.90;99.90;;;8.94;100.00;97561.91;5033101;28;20950;-74
2022/10/25 06:19:29;;;;;;;30.25;10.93;;;9.90;99.90;;;8.97;100.00;97571.19;5033236;28;20792;-74
2022/10/25 06:21:55;;;;;;;28.57;10.43;;;10.00;99.90;;;9.00;100.00;97565.44;5033081;28;20899;-74
2022/10/25 06:24:21;;;;;;;34.15;11.45;;;10.00;99.90;;;8.97;100.00;97568.53;5032558;28;20412;-72
2022/10/25 06:26:47;;;;;;;35.63;10.98;;;10.00;99.90;;;9.01;100.00;97574.97;5032914;28;20549;-74
2022/10/25 06:29:13;;;;;;;28.63;10.95;;;10.00;99.90;;;9.01;100.00;97575.78;5032895;28;20398;-74
2022/10/25 06:31:40;;;;;;;31.40;11.15;;;10.00;99.90;;;9.08;100.00;97594.09;5032848;28;20449;-73
2022/10/25 06:34:06;;;;;;;34.75;11.45;;;10.00;99.90;;;9.09;100.00;97604.44;5032398;28;20869;-73
2022/10/25 06:36:33;;;;;;;33.90;10.75;;;10.10;99.90;;;9.12;100.00;97609.25;5032682;28;20406;-74
2022/10/25 06:38:59;;;;;;;37.53;11.68;;;10.10;99.90;;;9.14;100.00;97612.44;5032457;28;20418;-74
2022/10/25 06:41:27;;;;;;;26.40;9.52;;;10.10;99.90;;;9.13;100.00;97617.97;5032939;28;20399;-74
2022/10/25 06:43:54;;;;;;;30.65;10.30;;;10.10;99.90;;;9.12;100.00;97609.25;5032329;28;20755;-74
2022/10/25 06:46:22;;;;;;;39.65;11.32;;;10.10;99.90;;;9.13;100.00;97613.50;5032514;28;20447;-74
2022/10/25 06:48:48;;;;;;;37.25;11.10;;;10.10;99.90;;;9.16;100.00;97618.31;5057879;22;20448;-77
2022/10/25 06:51:14;;;;;;;30.02;10.80;;;10.10;99.90;;;9.17;100.00;97622.53;5067348;28;20759;-77
2022/10/25 06:53:41;;;;;;;26.83;10.00;;;10.10;99.90;;;9.16;100.00;97615.66;5033701;28;20513;-79
2022/10/25 06:56:10;;;;;;;23.87;9.37;;;10.10;99.90;;;9.18;100.00;97633.91;5038934;28;20442;-78
2022/10/25 06:58:37;;;;;;;26.83;9.73;;;10.20;99.90;;;9.18;100.00;97639.97;5039955;28;20882;-78
2022/10/25 07:01:05;;;;;;;36.92;11.30;;;10.20;99.90;;;9.22;100.00;97633.22;5051662;28;20455;-78
2022/10/25 07:03:34;;;;;;;27.83;9.57;;;10.20;99.90;;;9.24;100.00;97648.81;5051458;28;20397;-77
2022/10/25 07:06:02;;;;;;;33.30;10.00;;;10.20;99.90;;;9.30;100.00;97647.88;5046593;28;20405;-79
2022/10/25 07:08:28;;;;;;;33.93;10.70;;;10.20;99.90;;;9.32;100.00;97651.09;5051949;28;20428;-81
2022/10/25 07:10:56;;;;;;;31.38;10.02;;;10.30;99.90;;;9.34;100.00;97654.28;5051309;28;20410;-78
2022/10/25 07:13:22;;;;;;;27.33;9.50;;;10.30;99.90;;;9.38;100.00;97650.13;5051002;28;20500;-76
2022/10/25 07:15:48;;;;;;;24.77;9.13;;;10.30;99.90;;;9.42;100.00;97653.09;5039556;28;21055;-78
2022/10/25 07:18:14;;;;;;;35.50;10.60;;;10.40;99.90;;;9.44;100.00;97651.84;5046542;28;20442;-80
2022/10/25 07:20:40;;;;;;;50.00;12.90;;;10.40;99.90;;;9.48;100.00;97655.59;5044687;28;20919;-78
2022/10/25 07:23:06;;;;;;;25.30;8.48;;;10.40;99.90;;;9.55;100.00;97656.25;5049451;28;20393;-77
2022/10/25 07:25:32;;;;;;;34.97;10.70;;;10.50;99.90;;;9.61;100.00;97660.59;5047702;28;20425;-77
2022/10/25 07:28:00;;;;;;;28.05;9.80;;;10.50;99.90;;;9.69;100.00;97656.78;5050054;28;20937;-78
2022/10/25 07:30:25;;;;;;;34.80;10.07;;;10.60;99.90;;;9.75;100.00;97653.16;5048198;28;20509;-79
2022/10/25 07:32:51;;;;;;;46.87;10.83;;;10.70;99.90;;;9.83;100.00;97667.84;5049469;28;20512;-79
2022/10/25 07:35:17;;;;;;;26.75;9.43;;;10.80;99.90;;;9.88;100.00;97662.63;5044765;28;20508;-78
2022/10/25 07:37:43;;;;;;;19.17;7.45;;;10.80;99.90;;;10.02;100.00;97662.06;5043389;28;20441;-79
2022/10/25 07:40:10;;;;;;;26.40;9.13;;;10.90;99.90;;;10.10;100.00;97664.31;5047388;28;20413;-78
2022/10/25 07:42:36;;;;;;;30.30;8.77;;;11.00;99.90;;;10.11;100.00;97662.47;5048590;28;20410;-79
2022/10/25 07:45:04;;;;;;;17.42;7.03;;;11.00;99.90;;;10.35;100.00;97669.22;5048544;28;20937;-79
2022/10/25 07:47:30;;;;;;;27.75;8.15;;;11.10;99.90;;;10.28;100.00;97668.59;5047121;28;20399;-78
2022/10/25 07:49:56;;;;;;;22.30;8.33;;;11.20;99.90;;;10.36;100.00;97672.69;5036602;28;20783;-78
2022/10/25 07:52:22;;;;;;;23.65;7.50;;;11.30;99.90;;;10.43;100.00;97666.19;5048615;28;20420;-79
2022/10/25 07:54:48;;;;;;;21.45;7.03;;;11.30;99.90;;;10.45;100.00;97677.28;5030965;28;20774;-78
2022/10/25 07:57:14;;;;;;;22.85;7.85;;;11.40;99.90;;;10.62;100.00;97668.53;5047429;28;20420;-78
2022/10/25 07:59:40;;;;;;;27.70;7.40;;;11.50;99.90;;;10.74;100.00;97659.47;5046638;28;20489;-76
2022/10/25 08:02:09;;;;;;;17.48;6.05;;;11.60;99.90;;;10.87;100.00;97655.63;5046905;28;20494;-82
2022/10/25 08:04:35;;;;;;;19.00;6.63;;;11.70;99.90;;;10.92;100.00;97668.13;5031833;28;20418;-74
2022/10/25 08:07:01;;;;;;;22.15;6.45;;;11.70;99.90;;;10.97;100.00;97665.56;5049786;28;20413;-77
2022/10/25 08:09:27;;;;;;;20.10;5.88;;;11.90;99.90;;;11.12;100.00;97663.91;5050727;28;20664;-76
2022/10/25 08:11:53;;;;;;;20.57;6.30;;;11.90;99.90;;;11.04;100.00;97661.69;5047791;28;20981;-76
2022/10/25 08:14:19;;;;;;;18.17;6.00;;;11.90;99.90;;;11.17;100.00;97663.16;5031687;28;20434;-78
2022/10/25 08:16:45;;;;;;;22.98;5.63;;;12.00;99.90;;;11.11;100.00;97664.16;5037677;28;20417;-77
2022/10/25 08:19:12;;;;;;;19.15;5.80;;;12.00;99.90;;;11.08;100.00;97661.97;5039622;28;20510;-82
2022/10/25 08:21:38;;;;;;;18.27;5.57;;;12.00;99.90;;;11.38;100.00;97661.50;5032152;28;20423;-78
2022/10/25 08:24:05;;;;;;;18.35;4.85;;;12.10;99.90;;;11.27;100.00;97662.47;5030534;28;20998;-78
2022/10/25 08:26:31;;;;;;;17.10;4.47;;;12.20;99.90;;;11.29;100.00;97663.00;5043393;28;20415;-77
2022/10/25 08:29:09;;;;;;;16.07;4.90;;;12.20;99.90;;;11.47;100.00;97652.06;5045335;28;20460;-78
2022/10/25 08:31:35;;;;;;;12.85;4.40;;;12.20;99.90;;;11.67;100.00;97656.75;5061917;28;20429;-79
2022/10/25 08:34:02;;;;;;;16.67;4.47;;;12.40;99.90;;;11.67;100.00;97652.25;5043427;28;20453;-83
2022/10/25 08:36:30;;;;;;;11.40;4.15;;;12.50;99.90;;;11.79;100.00;97660.91;5041088;28;20494;-76
2022/10/25 08:38:55;;;;;;;9.50;3.63;;;12.60;99.90;;;11.83;100.00;97661.19;5048672;28;20936;-76
2022/10/25 08:41:39;;;;;;;18.40;3.67;;;12.60;99.90;;;11.82;100.00;97663.03;5045820;28;20415;-78
2022/10/25 08:44:16;;;;;;;11.73;3.60;;;12.70;99.90;;;11.82;100.00;97662.25;5048203;28;20405;-76
2022/10/25 08:46:52;;;;;;;13.38;3.78;;;12.60;99.90;;;12.02;100.00;97657.13;5046649;28;20410;-75
2022/10/25 08:49:25;;;;;;;8.00;3.00;;;12.80;99.90;;;12.08;100.00;97657.97;5041702;28;20411;-79
2022/10/25 08:51:54;;;;;;;15.60;3.60;;;12.80;99.90;;;12.00;100.00;97667.19;5034318;28;20411;-78
2022/10/25 08:54:31;;;;;;;13.65;3.17;;;12.80;99.90;;;11.97;100.00;97662.38;5041103;28;20415;-77
2022/10/25 08:57:07;;;;;;;8.90;2.73;;;12.80;99.90;;;12.22;100.00;97667.88;5031885;28;20961;-83
2022/10/25 08:59:41;;;;;;;6.95;2.58;;;13.00;99.90;;;12.28;100.00;97660.75;5047031;28;20408;-79
2022/10/25 09:02:19;;;;;;;17.17;3.50;;;13.00;99.90;;;12.16;100.00;97657.50;5047793;28;20411;-78
2022/10/25 09:04:49;;;;;;;10.40;2.75;;;13.10;99.90;;;12.33;100.00;97656.28;5029791;28;20743;-79
2022/10/25 09:07:55;;;;;;;6.65;2.33;;;13.10;99.90;;;12.56;100.00;97662.25;5037860;28;20418;-79
2022/10/25 09:10:33;;;;;;;6.90;2.67;;;13.30;99.90;;;12.91;100.00;97667.78;5028395;28;20427;-77
2022/10/25 09:13:14;;;;;;;11.23;2.78;;;13.60;99.90;;;13.00;100.00;97668.09;5029953;28;20413;-82
2022/10/25 09:15:58;;;;;;;16.75;3.22;;;13.70;99.90;;;12.87;100.00;97674.66;5031448;28;20406;-79
2022/10/25 09:18:44;;;;;;;9.38;2.78;;;13.70;99.90;;;13.10;100.00;97673.44;5042589;28;20416;-79
2022/10/25 09:23:58;;;;;;;11.27;2.67;;;13.60;99.90;;;12.77;100.00;97679.94;5234324;22;20427;-77
2022/10/25 09:26:40;;;;;;;10.18;2.80;;;13.50;99.90;;;13.01;100.00;97681.09;5029729;28;20403;-80
2022/10/25 09:29:23;;;;;;;8.48;2.30;;;13.50;99.90;;;13.10;100.00;97684.06;5024933;28;20498;-80
2022/10/25 09:31:54;;;;;;;8.95;2.22;;;13.80;99.90;;;12.98;100.00;97671.00;5019443;28;20429;-78
2022/10/25 09:34:22;;;;;;;10.30;2.60;;;13.70;99.90;;;12.89;100.00;97669.88;5010845;28;20400;-77
2022/10/25 09:36:53;;;;;;;7.22;2.08;;;13.60;99.90;;;13.00;100.00;97674.22;5008306;28;20500;-82
2022/10/25 09:39:30;;;;;;;14.50;2.40;;;13.70;99.90;;;13.10;100.00;97670.78;5017749;28;20497;-87
2022/10/25 09:41:59;;;;;;;8.77;1.98;;;13.90;99.90;;;13.12;100.00;97682.75;5033353;28;20411;-85
2022/10/25 09:44:36;;;;;;;8.95;2.10;;;13.80;99.90;;;13.02;100.00;97681.91;5028358;28;20412;-85
2022/10/25 09:47:17;;;;;;;10.07;2.40;;;13.70;99.90;;;13.43;100.00;97678.38;5028226;28;20419;-80
2022/10/25 09:49:51;;;;;;;9.50;1.88;;;14.00;99.90;;;13.77;100.00;97677.91;5026963;28;20426;-82
2022/10/25 09:52:25;;;;;;;6.75;2.08;;;14.40;99.90;;;13.28;100.00;97678.31;5011847;28;20506;-83
2022/10/25 09:55:05;;;;;;;13.60;2.40;;;14.10;99.90;;;13.56;100.00;97674.41;5009698;28;20455;-79
2022/10/25 09:57:31;;;;;;;9.10;1.90;;;14.10;99.90;;;13.73;100.00;97674.97;5019783;28;20424;-78
2022/10/25 09:59:57;;;;;;;9.45;2.28;;;14.40;99.90;;;13.31;100.00;97669.81;5011715;28;20427;-76
2022/10/25 10:02:25;;;;;;;8.50;1.88;;;14.10;99.90;;;13.37;100.00;97670.66;5024166;28;20411;-76
2022/10/25 10:04:52;;;;;;;9.15;2.08;;;14.00;99.90;;;13.24;100.00;97668.47;5023786;28;20420;-76
2022/10/25 10:07:25;;;;;;;11.30;2.50;;;14.00;99.90;;;13.05;100.00;97668.91;5020471;28;20420;-78
2022/10/25 10:09:55;;;;;;;7.85;2.28;;;13.90;99.90;;;13.42;100.00;97670.66;5016278;28;20913;-75
2022/10/25 10:12:28;;;;;;;10.50;1.95;;;14.10;99.90;;;13.52;100.00;97676.81;5012113;28;20409;-76
2022/10/25 10:15:00;;;;;;;7.45;2.03;;;14.30;99.90;;;13.55;100.00;97676.25;5012877;28;20510;-75
2022/10/25 10:17:28;;;;;;;10.02;2.28;;;14.20;99.90;;;13.42;100.00;97674.13;5011370;28;20470;-74
2022/10/25 10:20:13;;;;;;;7.80;2.20;;;14.10;99.90;;;13.43;100.00;97678.38;5017888;28;20436;-75
2022/10/25 10:22:47;;;;;;;7.60;2.13;;;14.20;99.90;;;13.50;100.00;97670.16;5017099;28;20415;-74